sensor_id;sensor_type;location;lat;lon;timestamp;P1;durP1;ratioP1;P2;durP2;ratioP2
71947;SDS011;63257;55.082;38.772;2024-03-08T00:00:15;13.43;;;4.60;;
71947;SDS011;63257;55.082;38.772;2024-03-08T00:02:45;16.15;;;5.18;;
71947;SDS011;63257;55.082;38.772;2024-03-08T00:05:12;11.68;;;4.60;;
71947;SDS011;63257;55.082;38.772;2024-03-08T00:07:38;14.07;;;4.75;;
71947;SDS011;63257;55.082;38.772;2024-03-08T00:10:05;9.15;;;4.20;;
71947;SDS011;63257;55.082;38.772;2024-03-08T00:12:40;12.23;;;5.60;;
71947;SDS011;63257;55.082;38.772;2024-03-08T00:15:10;12.82;;;5.13;;
71947;SDS011;63257;55.082;38.772;2024-03-08T00:17:39;11.03;;;4.60;;
71947;SDS011;63257;55.082;38.772;2024-03-08T00:20:06;13.18;;;5.20;;
71947;SDS011;63257;55.082;38.772;2024-03-08T00:22:39;15.52;;;5.53;;
71947;SDS011;63257;55.082;38.772;2024-03-08T00:25:06;15.07;;;5.27;;
71947;SDS011;63257;55.082;38.772;2024-03-08T00:27:37;13.85;;;5.60;;
71947;SDS011;63257;55.082;38.772;2024-03-08T00:30:06;13.15;;;5.30;;
71947;SDS011;63257;55.082;38.772;2024-03-08T00:32:33;17.38;;;5.18;;
71947;SDS011;63257;55.082;38.772;2024-03-08T00:34:59;15.77;;;5.28;;
71947;SDS011;63257;55.082;38.772;2024-03-08T00:37:25;12.73;;;5.72;;
71947;SDS011;63257;55.082;38.772;2024-03-08T00:39:51;14.50;;;5.10;;
71947;SDS011;63257;55.082;38.772;2024-03-08T00:42:18;14.10;;;4.97;;
71947;SDS011;63257;55.082;38.772;2024-03-08T00:44:45;13.23;;;5.70;;
71947;SDS011;63257;55.082;38.772;2024-03-08T00:47:11;11.77;;;4.72;;
71947;SDS011;63257;55.082;38.772;2024-03-08T00:49:37;15.23;;;5.13;;
71947;SDS011;63257;55.082;38.772;2024-03-08T00:52:04;13.25;;;5.78;;
71947;SDS011;63257;55.082;38.772;2024-03-08T00:54:34;14.10;;;5.80;;
71947;SDS011;63257;55.082;38.772;2024-03-08T00:57:02;13.75;;;6.07;;
71947;SDS011;63257;55.082;38.772;2024-03-08T00:59:32;13.32;;;5.60;;
71947;SDS011;63257;55.082;38.772;2024-03-08T01:02:01;11.70;;;5.03;;
71947;SDS011;63257;55.082;38.772;2024-03-08T01:04:27;15.82;;;6.07;;
71947;SDS011;63257;55.082;38.772;2024-03-08T01:06:55;13.93;;;5.63;;
71947;SDS011;63257;55.082;38.772;2024-03-08T01:09:25;14.60;;;5.73;;
71947;SDS011;63257;55.082;38.772;2024-03-08T01:11:53;11.93;;;5.65;;
71947;SDS011;63257;55.082;38.772;2024-03-08T01:14:22;14.82;;;5.80;;
71947;SDS011;63257;55.082;38.772;2024-03-08T01:16:49;12.82;;;5.25;;
71947;SDS011;63257;55.082;38.772;2024-03-08T01:19:15;11.90;;;4.68;;
71947;SDS011;63257;55.082;38.772;2024-03-08T01:21:41;16.63;;;5.57;;
71947;SDS011;63257;55.082;38.772;2024-03-08T01:24:08;13.75;;;5.30;;
71947;SDS011;63257;55.082;38.772;2024-03-08T01:26:34;13.77;;;5.90;;
71947;SDS011;63257;55.082;38.772;2024-03-08T01:29:00;14.50;;;5.72;;
71947;SDS011;63257;55.082;38.772;2024-03-08T01:31:29;13.68;;;5.80;;
71947;SDS011;63257;55.082;38.772;2024-03-08T01:33:56;14.33;;;5.70;;
71947;SDS011;63257;55.082;38.772;2024-03-08T01:36:22;13.30;;;5.32;;
71947;SDS011;63257;55.082;38.772;2024-03-08T01:38:48;17.15;;;6.75;;
71947;SDS011;63257;55.082;38.772;2024-03-08T01:41:15;15.75;;;6.40;;
71947;SDS011;63257;55.082;38.772;2024-03-08T01:43:43;15.05;;;6.47;;
71947;SDS011;63257;55.082;38.772;2024-03-08T01:46:11;18.35;;;7.10;;
71947;SDS011;63257;55.082;38.772;2024-03-08T01:48:40;18.45;;;5.90;;
71947;SDS011;63257;55.082;38.772;2024-03-08T01:51:07;13.10;;;5.60;;
71947;SDS011;63257;55.082;38.772;2024-03-08T01:53:34;14.32;;;6.20;;
71947;SDS011;63257;55.082;38.772;2024-03-08T01:56:00;15.93;;;6.35;;
71947;SDS011;63257;55.082;38.772;2024-03-08T01:58:31;16.10;;;6.03;;
71947;SDS011;63257;55.082;38.772;2024-03-08T02:00:58;15.35;;;6.25;;
71947;SDS011;63257;55.082;38.772;2024-03-08T02:03:26;16.13;;;6.55;;
71947;SDS011;63257;55.082;38.772;2024-03-08T02:05:51;16.07;;;6.30;;
71947;SDS011;63257;55.082;38.772;2024-03-08T02:08:18;18.27;;;7.00;;
71947;SDS011;63257;55.082;38.772;2024-03-08T02:10:48;21.33;;;7.07;;
71947;SDS011;63257;55.082;38.772;2024-03-08T02:13:15;17.88;;;7.13;;
71947;SDS011;63257;55.082;38.772;2024-03-08T02:18:41;16.05;;;6.05;;
71947;SDS011;63257;55.082;38.772;2024-03-08T02:21:07;13.90;;;5.50;;
71947;SDS011;63257;55.082;38.772;2024-03-08T02:23:36;20.27;;;8.20;;
71947;SDS011;63257;55.082;38.772;2024-03-08T02:26:03;14.13;;;6.05;;
71947;SDS011;63257;55.082;38.772;2024-03-08T02:28:30;15.50;;;6.72;;
71947;SDS011;63257;55.082;38.772;2024-03-08T02:30:56;14.70;;;6.03;;
71947;SDS011;63257;55.082;38.772;2024-03-08T02:33:23;11.43;;;4.85;;
71947;SDS011;63257;55.082;38.772;2024-03-08T02:35:50;17.73;;;7.15;;
71947;SDS011;63257;55.082;38.772;2024-03-08T02:38:18;14.98;;;6.93;;
71947;SDS011;63257;55.082;38.772;2024-03-08T02:40:46;18.08;;;7.20;;
71947;SDS011;63257;55.082;38.772;2024-03-08T02:43:14;18.95;;;7.93;;
71947;SDS011;63257;55.082;38.772;2024-03-08T02:45:41;16.33;;;7.35;;
71947;SDS011;63257;55.082;38.772;2024-03-08T02:48:07;18.23;;;8.17;;
71947;SDS011;63257;55.082;38.772;2024-03-08T02:50:34;17.42;;;7.35;;
71947;SDS011;63257;55.082;38.772;2024-03-08T02:53:01;17.13;;;6.90;;
71947;SDS011;63257;55.082;38.772;2024-03-08T02:55:28;16.37;;;7.23;;
71947;SDS011;63257;55.082;38.772;2024-03-08T02:57:55;16.38;;;7.18;;
71947;SDS011;63257;55.082;38.772;2024-03-08T03:00:21;16.60;;;7.00;;
71947;SDS011;63257;55.082;38.772;2024-03-08T03:02:51;18.23;;;7.65;;
71947;SDS011;63257;55.082;38.772;2024-03-08T03:05:20;18.17;;;7.40;;
71947;SDS011;63257;55.082;38.772;2024-03-08T03:07:46;17.45;;;7.18;;
71947;SDS011;63257;55.082;38.772;2024-03-08T03:10:12;14.93;;;6.38;;
71947;SDS011;63257;55.082;38.772;2024-03-08T03:12:38;15.57;;;6.43;;
71947;SDS011;63257;55.082;38.772;2024-03-08T03:15:04;18.33;;;6.90;;
71947;SDS011;63257;55.082;38.772;2024-03-08T03:17:32;18.95;;;7.20;;
71947;SDS011;63257;55.082;38.772;2024-03-08T03:19:58;20.83;;;7.10;;
71947;SDS011;63257;55.082;38.772;2024-03-08T03:22:23;16.20;;;7.00;;
71947;SDS011;63257;55.082;38.772;2024-03-08T03:24:50;16.92;;;6.70;;
71947;SDS011;63257;55.082;38.772;2024-03-08T03:27:17;16.60;;;6.47;;
71947;SDS011;63257;55.082;38.772;2024-03-08T03:29:43;14.40;;;6.00;;
71947;SDS011;63257;55.082;38.772;2024-03-08T03:32:12;18.47;;;6.40;;
71947;SDS011;63257;55.082;38.772;2024-03-08T03:34:39;18.02;;;7.85;;
71947;SDS011;63257;55.082;38.772;2024-03-08T03:37:05;11.98;;;5.55;;
71947;SDS011;63257;55.082;38.772;2024-03-08T03:39:33;25.53;;;7.77;;
71947;SDS011;63257;55.082;38.772;2024-03-08T03:42:00;12.00;;;5.03;;
71947;SDS011;63257;55.082;38.772;2024-03-08T03:44:28;16.98;;;7.25;;
71947;SDS011;63257;55.082;38.772;2024-03-08T03:46:54;21.47;;;9.50;;
71947;SDS011;63257;55.082;38.772;2024-03-08T03:49:19;15.23;;;5.80;;
71947;SDS011;63257;55.082;38.772;2024-03-08T03:51:46;15.85;;;6.68;;
71947;SDS011;63257;55.082;38.772;2024-03-08T03:54:12;16.23;;;7.00;;
71947;SDS011;63257;55.082;38.772;2024-03-08T03:56:38;13.68;;;6.60;;
71947;SDS011;63257;55.082;38.772;2024-03-08T03:59:05;20.27;;;8.05;;
71947;SDS011;63257;55.082;38.772;2024-03-08T04:01:32;14.23;;;5.60;;
71947;SDS011;63257;55.082;38.772;2024-03-08T04:04:00;14.23;;;6.07;;
71947;SDS011;63257;55.082;38.772;2024-03-08T04:06:26;10.45;;;5.55;;
71947;SDS011;63257;55.082;38.772;2024-03-08T04:08:51;14.13;;;6.10;;
71947;SDS011;63257;55.082;38.772;2024-03-08T04:11:17;16.10;;;7.25;;
71947;SDS011;63257;55.082;38.772;2024-03-08T04:13:43;16.30;;;6.50;;
71947;SDS011;63257;55.082;38.772;2024-03-08T04:16:09;15.80;;;7.95;;
71947;SDS011;63257;55.082;38.772;2024-03-08T04:18:37;20.77;;;7.43;;
71947;SDS011;63257;55.082;38.772;2024-03-08T04:21:04;14.90;;;7.20;;
71947;SDS011;63257;55.082;38.772;2024-03-08T04:23:33;13.52;;;5.80;;
71947;SDS011;63257;55.082;38.772;2024-03-08T04:26:02;16.90;;;7.65;;
71947;SDS011;63257;55.082;38.772;2024-03-08T04:28:31;14.50;;;6.30;;
71947;SDS011;63257;55.082;38.772;2024-03-08T04:30:57;13.27;;;6.22;;
71947;SDS011;63257;55.082;38.772;2024-03-08T04:33:23;19.65;;;6.97;;
71947;SDS011;63257;55.082;38.772;2024-03-08T04:35:49;10.83;;;5.43;;
71947;SDS011;63257;55.082;38.772;2024-03-08T04:38:15;18.90;;;7.80;;
71947;SDS011;63257;55.082;38.772;2024-03-08T04:40:41;17.87;;;6.97;;
71947;SDS011;63257;55.082;38.772;2024-03-08T04:43:07;17.85;;;7.60;;
71947;SDS011;63257;55.082;38.772;2024-03-08T04:45:34;13.10;;;5.03;;
71947;SDS011;63257;55.082;38.772;2024-03-08T04:48:00;18.70;;;7.53;;
71947;SDS011;63257;55.082;38.772;2024-03-08T04:50:25;15.27;;;6.28;;
71947;SDS011;63257;55.082;38.772;2024-03-08T04:52:54;16.35;;;6.63;;
71947;SDS011;63257;55.082;38.772;2024-03-08T04:55:21;16.53;;;6.90;;
71947;SDS011;63257;55.082;38.772;2024-03-08T04:57:47;12.00;;;4.50;;
71947;SDS011;63257;55.082;38.772;2024-03-08T05:00:13;10.02;;;3.35;;
71947;SDS011;63257;55.082;38.772;2024-03-08T05:02:40;11.00;;;4.80;;
71947;SDS011;63257;55.082;38.772;2024-03-08T05:05:07;16.40;;;6.03;;
71947;SDS011;63257;55.082;38.772;2024-03-08T05:07:38;11.43;;;4.55;;
71947;SDS011;63257;55.082;38.772;2024-03-08T05:10:05;13.07;;;6.10;;
71947;SDS011;63257;55.082;38.772;2024-03-08T05:12:32;45.47;;;15.23;;
71947;SDS011;63257;55.082;38.772;2024-03-08T05:14:58;17.23;;;7.45;;
71947;SDS011;63257;55.082;38.772;2024-03-08T05:17:25;17.42;;;6.72;;
71947;SDS011;63257;55.082;38.772;2024-03-08T05:19:51;11.67;;;4.80;;
71947;SDS011;63257;55.082;38.772;2024-03-08T05:22:17;13.05;;;5.68;;
71947;SDS011;63257;55.082;38.772;2024-03-08T05:24:44;14.43;;;6.20;;
71947;SDS011;63257;55.082;38.772;2024-03-08T05:27:10;10.82;;;5.75;;
71947;SDS011;63257;55.082;38.772;2024-03-08T05:29:36;14.20;;;6.20;;
71947;SDS011;63257;55.082;38.772;2024-03-08T05:32:03;12.07;;;5.47;;
71947;SDS011;63257;55.082;38.772;2024-03-08T05:34:29;12.27;;;5.78;;
71947;SDS011;63257;55.082;38.772;2024-03-08T05:36:55;14.65;;;5.78;;
71947;SDS011;63257;55.082;38.772;2024-03-08T05:39:21;13.67;;;5.10;;
71947;SDS011;63257;55.082;38.772;2024-03-08T05:41:47;14.40;;;5.28;;
71947;SDS011;63257;55.082;38.772;2024-03-08T05:44:13;18.38;;;7.47;;
71947;SDS011;63257;55.082;38.772;2024-03-08T05:46:39;17.05;;;5.90;;
71947;SDS011;63257;55.082;38.772;2024-03-08T05:49:05;14.25;;;5.47;;
71947;SDS011;63257;55.082;38.772;2024-03-08T05:51:32;8.40;;;3.13;;
71947;SDS011;63257;55.082;38.772;2024-03-08T05:54:06;16.75;;;6.38;;
71947;SDS011;63257;55.082;38.772;2024-03-08T05:56:37;14.05;;;5.30;;
71947;SDS011;63257;55.082;38.772;2024-03-08T05:59:03;14.77;;;5.83;;
71947;SDS011;63257;55.082;38.772;2024-03-08T06:01:29;10.32;;;4.45;;
71947;SDS011;63257;55.082;38.772;2024-03-08T06:04:02;12.10;;;4.28;;
71947;SDS011;63257;55.082;38.772;2024-03-08T06:06:29;12.80;;;5.97;;
71947;SDS011;63257;55.082;38.772;2024-03-08T06:08:55;9.80;;;4.80;;
71947;SDS011;63257;55.082;38.772;2024-03-08T06:11:25;16.88;;;6.68;;
71947;SDS011;63257;55.082;38.772;2024-03-08T06:13:55;16.17;;;6.20;;
71947;SDS011;63257;55.082;38.772;2024-03-08T06:16:26;10.13;;;4.95;;
71947;SDS011;63257;55.082;38.772;2024-03-08T06:18:58;13.10;;;5.38;;
71947;SDS011;63257;55.082;38.772;2024-03-08T06:21:27;12.15;;;4.72;;
71947;SDS011;63257;55.082;38.772;2024-03-08T06:23:53;12.27;;;5.70;;
71947;SDS011;63257;55.082;38.772;2024-03-08T06:26:26;10.50;;;4.22;;
71947;SDS011;63257;55.082;38.772;2024-03-08T06:28:54;14.88;;;5.45;;
71947;SDS011;63257;55.082;38.772;2024-03-08T06:31:20;13.43;;;6.57;;
71947;SDS011;63257;55.082;38.772;2024-03-08T06:33:47;13.75;;;6.30;;
71947;SDS011;63257;55.082;38.772;2024-03-08T06:36:16;15.10;;;5.40;;
71947;SDS011;63257;55.082;38.772;2024-03-08T06:38:50;11.90;;;4.80;;
71947;SDS011;63257;55.082;38.772;2024-03-08T06:41:16;13.05;;;4.93;;
71947;SDS011;63257;55.082;38.772;2024-03-08T06:43:42;8.63;;;3.92;;
71947;SDS011;63257;55.082;38.772;2024-03-08T06:46:12;11.90;;;5.30;;
71947;SDS011;63257;55.082;38.772;2024-03-08T06:48:40;15.32;;;6.32;;
71947;SDS011;63257;55.082;38.772;2024-03-08T06:51:05;11.82;;;5.32;;
71947;SDS011;63257;55.082;38.772;2024-03-08T06:53:32;16.00;;;5.77;;
71947;SDS011;63257;55.082;38.772;2024-03-08T06:55:58;12.50;;;5.20;;
71947;SDS011;63257;55.082;38.772;2024-03-08T06:58:24;12.70;;;5.18;;
71947;SDS011;63257;55.082;38.772;2024-03-08T07:00:50;9.40;;;3.70;;
71947;SDS011;63257;55.082;38.772;2024-03-08T07:03:18;14.48;;;5.78;;
71947;SDS011;63257;55.082;38.772;2024-03-08T07:05:44;14.82;;;6.93;;
71947;SDS011;63257;55.082;38.772;2024-03-08T07:08:10;15.33;;;6.77;;
71947;SDS011;63257;55.082;38.772;2024-03-08T07:10:39;15.65;;;6.40;;
71947;SDS011;63257;55.082;38.772;2024-03-08T07:13:10;13.18;;;5.20;;
71947;SDS011;63257;55.082;38.772;2024-03-08T07:15:36;11.87;;;5.50;;
71947;SDS011;63257;55.082;38.772;2024-03-08T07:18:02;12.90;;;6.00;;
71947;SDS011;63257;55.082;38.772;2024-03-08T07:20:28;15.55;;;6.28;;
71947;SDS011;63257;55.082;38.772;2024-03-08T07:22:54;15.07;;;6.40;;
71947;SDS011;63257;55.082;38.772;2024-03-08T07:25:20;13.35;;;4.70;;
71947;SDS011;63257;55.082;38.772;2024-03-08T07:27:55;13.50;;;6.07;;
71947;SDS011;63257;55.082;38.772;2024-03-08T07:30:22;14.98;;;6.43;;
71947;SDS011;63257;55.082;38.772;2024-03-08T07:33:09;17.05;;;7.47;;
71947;SDS011;63257;55.082;38.772;2024-03-08T07:35:38;19.33;;;5.93;;
71947;SDS011;63257;55.082;38.772;2024-03-08T07:38:05;16.88;;;7.13;;
71947;SDS011;63257;55.082;38.772;2024-03-08T07:40:33;12.90;;;5.28;;
71947;SDS011;63257;55.082;38.772;2024-03-08T07:43:06;12.75;;;5.35;;
71947;SDS011;63257;55.082;38.772;2024-03-08T07:45:33;16.00;;;7.00;;
71947;SDS011;63257;55.082;38.772;2024-03-08T07:47:59;15.70;;;6.18;;
71947;SDS011;63257;55.082;38.772;2024-03-08T07:50:24;18.43;;;7.80;;
71947;SDS011;63257;55.082;38.772;2024-03-08T07:52:50;18.58;;;8.65;;
71947;SDS011;63257;55.082;38.772;2024-03-08T07:55:16;14.03;;;6.60;;
71947;SDS011;63257;55.082;38.772;2024-03-08T07:57:42;15.35;;;6.97;;
71947;SDS011;63257;55.082;38.772;2024-03-08T08:00:08;12.75;;;5.63;;
71947;SDS011;63257;55.082;38.772;2024-03-08T08:02:36;12.53;;;5.37;;
71947;SDS011;63257;55.082;38.772;2024-03-08T08:05:02;14.18;;;6.30;;
71947;SDS011;63257;55.082;38.772;2024-03-08T08:07:30;16.73;;;7.63;;
71947;SDS011;63257;55.082;38.772;2024-03-08T08:09:56;13.43;;;5.93;;
71947;SDS011;63257;55.082;38.772;2024-03-08T08:12:21;13.68;;;7.00;;
71947;SDS011;63257;55.082;38.772;2024-03-08T08:14:47;11.67;;;5.20;;
71947;SDS011;63257;55.082;38.772;2024-03-08T08:17:13;9.02;;;4.70;;
71947;SDS011;63257;55.082;38.772;2024-03-08T08:19:40;16.53;;;6.60;;
71947;SDS011;63257;55.082;38.772;2024-03-08T08:22:06;16.48;;;7.30;;
71947;SDS011;63257;55.082;38.772;2024-03-08T08:24:34;12.38;;;5.18;;
71947;SDS011;63257;55.082;38.772;2024-03-08T08:27:02;9.63;;;5.10;;
71947;SDS011;63257;55.082;38.772;2024-03-08T08:29:29;16.15;;;7.35;;
71947;SDS011;63257;55.082;38.772;2024-03-08T08:31:58;16.38;;;6.85;;
71947;SDS011;63257;55.082;38.772;2024-03-08T08:34:25;16.48;;;7.60;;
71947;SDS011;63257;55.082;38.772;2024-03-08T08:36:52;14.32;;;6.55;;
71947;SDS011;63257;55.082;38.772;2024-03-08T08:39:18;15.05;;;6.45;;
71947;SDS011;63257;55.082;38.772;2024-03-08T08:41:44;19.42;;;7.65;;
71947;SDS011;63257;55.082;38.772;2024-03-08T08:44:10;11.97;;;6.33;;
71947;SDS011;63257;55.082;38.772;2024-03-08T08:46:38;16.73;;;7.15;;
71947;SDS011;63257;55.082;38.772;2024-03-08T08:49:04;14.25;;;6.70;;
71947;SDS011;63257;55.082;38.772;2024-03-08T08:51:31;11.98;;;5.60;;
71947;SDS011;63257;55.082;38.772;2024-03-08T08:53:59;14.80;;;7.18;;
71947;SDS011;63257;55.082;38.772;2024-03-08T08:56:25;18.55;;;9.23;;
71947;SDS011;63257;55.082;38.772;2024-03-08T08:58:52;18.37;;;8.30;;
71947;SDS011;63257;55.082;38.772;2024-03-08T09:01:20;16.25;;;7.63;;
71947;SDS011;63257;55.082;38.772;2024-03-08T09:03:46;19.05;;;7.55;;
71947;SDS011;63257;55.082;38.772;2024-03-08T09:06:12;17.03;;;7.13;;
71947;SDS011;63257;55.082;38.772;2024-03-08T09:08:39;14.48;;;6.35;;
71947;SDS011;63257;55.082;38.772;2024-03-08T09:11:05;14.10;;;6.07;;
71947;SDS011;63257;55.082;38.772;2024-03-08T09:13:31;15.82;;;6.88;;
71947;SDS011;63257;55.082;38.772;2024-03-08T09:15:59;11.02;;;5.75;;
71947;SDS011;63257;55.082;38.772;2024-03-08T09:18:26;12.20;;;4.97;;
71947;SDS011;63257;55.082;38.772;2024-03-08T09:20:51;15.98;;;7.15;;
71947;SDS011;63257;55.082;38.772;2024-03-08T09:23:19;16.73;;;7.47;;
71947;SDS011;63257;55.082;38.772;2024-03-08T09:25:45;15.73;;;7.20;;
71947;SDS011;63257;55.082;38.772;2024-03-08T09:28:12;14.63;;;7.40;;
71947;SDS011;63257;55.082;38.772;2024-03-08T09:30:38;19.63;;;9.40;;
71947;SDS011;63257;55.082;38.772;2024-03-08T09:33:05;22.30;;;11.15;;
71947;SDS011;63257;55.082;38.772;2024-03-08T09:35:31;16.00;;;7.93;;
71947;SDS011;63257;55.082;38.772;2024-03-08T09:37:57;20.73;;;9.50;;
71947;SDS011;63257;55.082;38.772;2024-03-08T09:40:23;14.13;;;6.23;;
71947;SDS011;63257;55.082;38.772;2024-03-08T09:42:51;16.48;;;8.55;;
71947;SDS011;63257;55.082;38.772;2024-03-08T09:45:19;22.33;;;9.50;;
71947;SDS011;63257;55.082;38.772;2024-03-08T09:47:47;15.55;;;7.75;;
71947;SDS011;63257;55.082;38.772;2024-03-08T09:50:18;17.35;;;8.13;;
71947;SDS011;63257;55.082;38.772;2024-03-08T09:52:46;15.77;;;8.37;;
71947;SDS011;63257;55.082;38.772;2024-03-08T09:55:13;18.98;;;8.63;;
71947;SDS011;63257;55.082;38.772;2024-03-08T09:57:43;14.38;;;6.85;;
71947;SDS011;63257;55.082;38.772;2024-03-08T10:00:32;15.85;;;6.90;;
71947;SDS011;63257;55.082;38.772;2024-03-08T10:03:02;13.63;;;6.90;;
71947;SDS011;63257;55.082;38.772;2024-03-08T10:05:28;20.13;;;8.55;;
71947;SDS011;63257;55.082;38.772;2024-03-08T10:07:58;18.60;;;7.78;;
71947;SDS011;63257;55.082;38.772;2024-03-08T10:10:24;17.58;;;7.43;;
71947;SDS011;63257;55.082;38.772;2024-03-08T10:12:49;17.05;;;7.55;;
71947;SDS011;63257;55.082;38.772;2024-03-08T10:15:17;18.13;;;8.50;;
71947;SDS011;63257;55.082;38.772;2024-03-08T10:17:43;17.98;;;8.05;;
71947;SDS011;63257;55.082;38.772;2024-03-08T10:20:15;16.38;;;7.43;;
71947;SDS011;63257;55.082;38.772;2024-03-08T10:22:42;18.27;;;9.13;;
71947;SDS011;63257;55.082;38.772;2024-03-08T10:25:12;14.80;;;7.07;;
71947;SDS011;63257;55.082;38.772;2024-03-08T10:27:39;16.95;;;6.85;;
71947;SDS011;63257;55.082;38.772;2024-03-08T10:30:10;19.95;;;8.70;;
71947;SDS011;63257;55.082;38.772;2024-03-08T10:32:38;14.38;;;6.55;;
71947;SDS011;63257;55.082;38.772;2024-03-08T10:35:05;17.35;;;8.10;;
71947;SDS011;63257;55.082;38.772;2024-03-08T10:37:33;22.13;;;9.35;;
71947;SDS011;63257;55.082;38.772;2024-03-08T10:40:03;23.57;;;9.50;;
71947;SDS011;63257;55.082;38.772;2024-03-08T10:42:40;18.27;;;8.75;;
71947;SDS011;63257;55.082;38.772;2024-03-08T10:47:41;21.97;;;10.07;;
71947;SDS011;63257;55.082;38.772;2024-03-08T10:50:18;17.20;;;8.23;;
71947;SDS011;63257;55.082;38.772;2024-03-08T10:52:51;18.92;;;8.13;;
71947;SDS011;63257;55.082;38.772;2024-03-08T10:55:18;17.10;;;6.97;;
71947;SDS011;63257;55.082;38.772;2024-03-08T10:57:46;23.10;;;9.15;;
71947;SDS011;63257;55.082;38.772;2024-03-08T11:00:16;18.50;;;8.05;;
71947;SDS011;63257;55.082;38.772;2024-03-08T11:02:44;17.85;;;8.38;;
71947;SDS011;63257;55.082;38.772;2024-03-08T11:05:11;19.20;;;8.87;;
71947;SDS011;63257;55.082;38.772;2024-03-08T11:07:59;20.33;;;9.48;;
71947;SDS011;63257;55.082;38.772;2024-03-08T11:10:25;13.05;;;6.85;;
71947;SDS011;63257;55.082;38.772;2024-03-08T11:12:52;20.05;;;9.07;;
71947;SDS011;63257;55.082;38.772;2024-03-08T11:15:17;20.92;;;8.93;;
71947;SDS011;63257;55.082;38.772;2024-03-08T11:17:47;21.53;;;9.60;;
71947;SDS011;63257;55.082;38.772;2024-03-08T11:20:18;17.13;;;7.88;;
71947;SDS011;63257;55.082;38.772;2024-03-08T11:22:48;17.75;;;8.40;;
71947;SDS011;63257;55.082;38.772;2024-03-08T11:25:35;15.73;;;6.50;;
71947;SDS011;63257;55.082;38.772;2024-03-08T11:30:45;18.55;;;8.52;;
71947;SDS011;63257;55.082;38.772;2024-03-08T11:33:34;18.17;;;9.75;;
71947;SDS011;63257;55.082;38.772;2024-03-08T11:38:40;18.95;;;9.52;;
71947;SDS011;63257;55.082;38.772;2024-03-08T11:41:07;19.23;;;8.40;;
71947;SDS011;63257;55.082;38.772;2024-03-08T11:43:33;17.40;;;9.23;;
71947;SDS011;63257;55.082;38.772;2024-03-08T11:46:07;23.15;;;8.82;;
71947;SDS011;63257;55.082;38.772;2024-03-08T11:48:34;15.82;;;7.57;;
71947;SDS011;63257;55.082;38.772;2024-03-08T11:51:01;22.60;;;8.80;;
71947;SDS011;63257;55.082;38.772;2024-03-08T11:53:28;22.90;;;9.23;;
71947;SDS011;63257;55.082;38.772;2024-03-08T11:55:54;18.50;;;9.70;;
71947;SDS011;63257;55.082;38.772;2024-03-08T11:58:21;19.00;;;8.77;;
71947;SDS011;63257;55.082;38.772;2024-03-08T12:00:46;18.95;;;9.13;;
71947;SDS011;63257;55.082;38.772;2024-03-08T12:03:12;19.57;;;9.20;;
71947;SDS011;63257;55.082;38.772;2024-03-08T12:05:38;51.42;;;21.08;;
71947;SDS011;63257;55.082;38.772;2024-03-08T12:08:04;26.37;;;11.03;;
71947;SDS011;63257;55.082;38.772;2024-03-08T12:10:38;21.70;;;9.85;;
71947;SDS011;63257;55.082;38.772;2024-03-08T12:13:03;17.55;;;6.75;;
71947;SDS011;63257;55.082;38.772;2024-03-08T12:15:32;22.03;;;9.43;;
71947;SDS011;63257;55.082;38.772;2024-03-08T12:17:59;19.83;;;8.52;;
71947;SDS011;63257;55.082;38.772;2024-03-08T12:20:26;18.38;;;7.88;;
71947;SDS011;63257;55.082;38.772;2024-03-08T12:22:57;19.55;;;9.45;;
71947;SDS011;63257;55.082;38.772;2024-03-08T12:25:30;18.13;;;7.93;;
71947;SDS011;63257;55.082;38.772;2024-03-08T12:28:06;19.10;;;8.70;;
71947;SDS011;63257;55.082;38.772;2024-03-08T12:30:35;13.68;;;6.03;;
71947;SDS011;63257;55.082;38.772;2024-03-08T12:33:11;14.87;;;6.73;;
71947;SDS011;63257;55.082;38.772;2024-03-08T12:35:38;15.35;;;7.55;;
71947;SDS011;63257;55.082;38.772;2024-03-08T12:38:04;18.40;;;7.22;;
71947;SDS011;63257;55.082;38.772;2024-03-08T12:40:32;16.20;;;7.17;;
71947;SDS011;63257;55.082;38.772;2024-03-08T12:43:00;12.82;;;5.60;;
71947;SDS011;63257;55.082;38.772;2024-03-08T12:45:31;18.60;;;7.38;;
71947;SDS011;63257;55.082;38.772;2024-03-08T12:47:58;13.02;;;6.20;;
71947;SDS011;63257;55.082;38.772;2024-03-08T12:50:25;15.15;;;7.13;;
71947;SDS011;63257;55.082;38.772;2024-03-08T12:52:50;20.15;;;9.43;;
71947;SDS011;63257;55.082;38.772;2024-03-08T12:55:18;22.90;;;9.70;;
71947;SDS011;63257;55.082;38.772;2024-03-08T12:57:44;16.20;;;8.13;;
71947;SDS011;63257;55.082;38.772;2024-03-08T13:00:10;15.93;;;7.72;;
71947;SDS011;63257;55.082;38.772;2024-03-08T13:02:45;19.02;;;8.27;;
71947;SDS011;63257;55.082;38.772;2024-03-08T13:05:12;17.65;;;7.00;;
71947;SDS011;63257;55.082;38.772;2024-03-08T13:07:42;17.83;;;8.05;;
71947;SDS011;63257;55.082;38.772;2024-03-08T13:10:12;23.88;;;9.60;;
71947;SDS011;63257;55.082;38.772;2024-03-08T13:12:41;21.80;;;8.90;;
71947;SDS011;63257;55.082;38.772;2024-03-08T13:15:10;26.30;;;12.07;;
71947;SDS011;63257;55.082;38.772;2024-03-08T13:17:40;22.25;;;8.18;;
71947;SDS011;63257;55.082;38.772;2024-03-08T13:20:09;21.37;;;9.67;;
71947;SDS011;63257;55.082;38.772;2024-03-08T13:22:41;22.73;;;8.52;;
71947;SDS011;63257;55.082;38.772;2024-03-08T13:25:07;22.30;;;10.07;;
71947;SDS011;63257;55.082;38.772;2024-03-08T13:27:41;23.10;;;10.27;;
71947;SDS011;63257;55.082;38.772;2024-03-08T13:30:14;19.13;;;9.27;;
71947;SDS011;63257;55.082;38.772;2024-03-08T13:32:44;16.58;;;7.72;;
71947;SDS011;63257;55.082;38.772;2024-03-08T13:35:10;19.42;;;8.40;;
71947;SDS011;63257;55.082;38.772;2024-03-08T13:37:40;22.15;;;10.05;;
71947;SDS011;63257;55.082;38.772;2024-03-08T13:40:06;17.30;;;7.90;;
71947;SDS011;63257;55.082;38.772;2024-03-08T13:42:37;22.77;;;9.02;;
71947;SDS011;63257;55.082;38.772;2024-03-08T13:45:10;22.37;;;9.67;;
71947;SDS011;63257;55.082;38.772;2024-03-08T13:47:40;22.42;;;8.43;;
71947;SDS011;63257;55.082;38.772;2024-03-08T13:50:07;20.38;;;8.38;;
71947;SDS011;63257;55.082;38.772;2024-03-08T13:52:38;20.00;;;8.93;;
71947;SDS011;63257;55.082;38.772;2024-03-08T13:55:04;22.58;;;9.55;;
71947;SDS011;63257;55.082;38.772;2024-03-08T13:57:31;24.50;;;10.38;;
71947;SDS011;63257;55.082;38.772;2024-03-08T13:59:58;19.38;;;7.85;;
71947;SDS011;63257;55.082;38.772;2024-03-08T14:02:25;18.75;;;8.60;;
71947;SDS011;63257;55.082;38.772;2024-03-08T14:05:12;24.70;;;10.52;;
71947;SDS011;63257;55.082;38.772;2024-03-08T14:07:39;23.30;;;10.60;;
71947;SDS011;63257;55.082;38.772;2024-03-08T14:10:05;23.23;;;10.37;;
71947;SDS011;63257;55.082;38.772;2024-03-08T14:12:32;23.67;;;10.07;;
71947;SDS011;63257;55.082;38.772;2024-03-08T14:14:58;23.60;;;9.67;;
71947;SDS011;63257;55.082;38.772;2024-03-08T14:17:30;22.70;;;9.80;;
71947;SDS011;63257;55.082;38.772;2024-03-08T14:19:56;27.08;;;10.52;;
71947;SDS011;63257;55.082;38.772;2024-03-08T14:22:22;24.07;;;10.93;;
71947;SDS011;63257;55.082;38.772;2024-03-08T14:24:49;18.95;;;8.25;;
71947;SDS011;63257;55.082;38.772;2024-03-08T14:27:15;19.77;;;9.10;;
71947;SDS011;63257;55.082;38.772;2024-03-08T14:29:43;18.73;;;7.83;;
71947;SDS011;63257;55.082;38.772;2024-03-08T14:32:10;20.88;;;8.48;;
71947;SDS011;63257;55.082;38.772;2024-03-08T14:34:36;42.47;;;17.08;;